createdAt,value
2017-12-16T00:00:21.822Z,25.30
2017-12-16T00:02:49.457Z,43.10
2017-12-16T00:05:17.038Z,38.77
2017-12-16T00:07:44.787Z,19.63
2017-12-16T00:10:13.164Z,11.93
2017-12-16T00:12:40.764Z,12.33
2017-12-16T00:15:08.378Z,14.27
2017-12-16T00:17:35.962Z,8.63
2017-12-16T00:20:03.572Z,8.17
2017-12-16T00:22:31.171Z,12.73
2017-12-16T00:24:59.549Z,10.80
2017-12-16T00:27:27.910Z,8.40
2017-12-16T00:29:55.474Z,5.63
2017-12-16T00:32:23.108Z,6.60
2017-12-16T00:34:50.678Z,16.73
2017-12-16T00:37:18.312Z,4.43
2017-12-16T00:39:45.883Z,8.33
2017-12-16T00:42:13.525Z,5.10
2017-12-16T00:44:41.090Z,9.37
2017-12-16T00:47:08.688Z,15.13
2017-12-16T00:49:36.259Z,9.73
2017-12-16T00:52:04.631Z,20.70
2017-12-16T00:54:32.965Z,10.10
2017-12-16T00:57:00.535Z,19.37
2017-12-16T00:59:28.131Z,22.93
2017-12-16T01:01:56.462Z,8.60
2017-12-16T01:04:24.063Z,54.27
2017-12-16T01:06:52.394Z,13.83
2017-12-16T01:09:19.986Z,31.83
2017-12-16T01:11:47.564Z,16.50
2017-12-16T01:14:15.155Z,16.60
2017-12-16T01:16:42.722Z,20.07
2017-12-16T01:19:10.314Z,14.87
2017-12-16T01:21:37.887Z,18.27
2017-12-16T01:24:05.487Z,42.37
2017-12-16T01:26:33.052Z,9.83
2017-12-16T01:29:00.651Z,16.47
2017-12-16T01:31:28.218Z,20.57
2017-12-16T01:34:07.618Z,12.20
2017-12-16T01:36:46.880Z,7.83
2017-12-16T01:39:14.475Z,9.83
2017-12-16T01:41:42.042Z,9.20
2017-12-16T01:44:09.626Z,6.37
2017-12-16T01:46:37.195Z,5.80
2017-12-16T01:49:04.791Z,3.97
2017-12-16T01:51:33.139Z,8.57
2017-12-16T01:54:00.738Z,9.30
2017-12-16T01:56:29.072Z,8.00
2017-12-16T01:58:56.658Z,8.27
2017-12-16T02:01:24.235Z,13.70
2017-12-16T02:03:51.825Z,9.37
2017-12-16T02:06:20.161Z,17.47
2017-12-16T02:08:47.750Z,13.80
2017-12-16T02:11:15.326Z,8.00
2017-12-16T02:13:42.918Z,10.73
2017-12-16T02:16:10.494Z,15.20
2017-12-16T02:18:38.107Z,8.60
2017-12-16T02:21:05.678Z,12.67
2017-12-16T02:23:33.278Z,8.73
2017-12-16T02:26:00.846Z,6.80
2017-12-16T02:28:29.206Z,9.17
2017-12-16T02:30:56.778Z,9.30
2017-12-16T02:33:24.348Z,6.37
2017-12-16T02:35:52.718Z,6.00
2017-12-16T02:38:21.047Z,9.30
2017-12-16T02:40:48.639Z,13.40
2017-12-16T02:43:16.987Z,14.13
2017-12-16T02:45:44.598Z,4.63
2017-12-16T02:48:12.934Z,10.23
2017-12-16T02:50:40.529Z,10.40
2017-12-16T02:53:08.862Z,5.70
2017-12-16T02:55:36.455Z,7.43
2017-12-16T02:58:04.831Z,6.43
2017-12-16T03:00:33.190Z,9.50
2017-12-16T03:03:00.763Z,11.37
2017-12-16T03:05:28.359Z,10.40
2017-12-16T03:07:55.924Z,7.47
2017-12-16T03:10:23.523Z,7.90
2017-12-16T03:12:51.085Z,11.23
2017-12-16T03:15:18.680Z,6.40
2017-12-16T03:17:46.258Z,15.67
2017-12-16T03:20:13.841Z,12.80
2017-12-16T03:22:41.402Z,15.40
2017-12-16T03:25:09.012Z,12.40
2017-12-16T03:27:37.343Z,9.20
2017-12-16T03:30:04.936Z,10.67
2017-12-16T03:32:32.510Z,5.87
2017-12-16T03:35:00.855Z,9.03
2017-12-16T03:37:28.441Z,5.13
2017-12-16T03:39:56.770Z,8.60
2017-12-16T03:42:24.366Z,13.33
2017-12-16T03:44:52.711Z,11.03
2017-12-16T03:47:20.316Z,15.50
2017-12-16T03:49:47.878Z,8.40
2017-12-16T03:52:16.237Z,14.67
2017-12-16T03:54:43.812Z,17.07
2017-12-16T03:57:11.423Z,12.70
2017-12-16T03:59:39.003Z,13.73
2017-12-16T04:02:06.608Z,6.07
2017-12-16T04:04:34.186Z,10.53
2017-12-16T04:07:01.775Z,7.13
2017-12-16T04:09:29.346Z,10.90
2017-12-16T04:11:56.938Z,8.77
2017-12-16T04:14:24.516Z,12.87
2017-12-16T04:16:52.098Z,6.50
2017-12-16T04:19:19.670Z,14.30
2017-12-16T04:21:47.258Z,7.23
2017-12-16T04:24:15.595Z,10.23
2017-12-16T04:26:43.189Z,5.73
2017-12-16T04:29:10.759Z,10.07
2017-12-16T04:31:38.359Z,7.13
2017-12-16T04:34:05.933Z,8.53
2017-12-16T04:36:33.522Z,7.73
2017-12-16T04:39:01.099Z,7.20
2017-12-16T04:41:28.691Z,5.53
2017-12-16T04:43:56.910Z,5.57
2017-12-16T04:46:29.238Z,5.23
2017-12-16T04:49:02.134Z,6.83
2017-12-16T04:51:30.066Z,5.80
2017-12-16T04:53:57.699Z,8.10
2017-12-16T04:56:25.305Z,6.37
2017-12-16T04:58:52.872Z,5.77
2017-12-16T05:01:20.449Z,4.50
2017-12-16T05:03:48.038Z,5.83
2017-12-16T05:06:15.610Z,5.70
2017-12-16T05:08:44.781Z,3.80
2017-12-16T05:11:14.150Z,4.90
2017-12-16T05:13:41.739Z,5.50
2017-12-16T05:16:09.650Z,4.30
2017-12-16T05:18:37.234Z,6.33
2017-12-16T05:21:04.807Z,9.43
2017-12-16T05:23:32.407Z,11.47
2017-12-16T05:26:00.742Z,6.93
2017-12-16T05:28:28.335Z,7.53
2017-12-16T05:30:56.675Z,4.03
2017-12-16T05:33:24.262Z,3.60
2017-12-16T05:35:51.826Z,4.90
2017-12-16T05:38:19.414Z,8.90
2017-12-16T05:40:46.983Z,7.77
2017-12-16T05:43:14.567Z,6.00
2017-12-16T05:45:42.136Z,5.77
2017-12-16T05:48:09.734Z,4.87
2017-12-16T05:50:38.448Z,12.37
2017-12-16T05:53:06.281Z,29.23
2017-12-16T05:55:33.876Z,14.43
2017-12-16T05:58:01.471Z,19.37
2017-12-16T06:00:29.041Z,18.60
2017-12-16T06:02:56.633Z,3.57
2017-12-16T06:05:24.202Z,4.93
2017-12-16T06:07:51.806Z,5.23
2017-12-16T06:10:19.375Z,3.10
2017-12-16T06:12:46.941Z,6.57
2017-12-16T06:15:14.522Z,3.53
2017-12-16T06:17:44.164Z,3.23
2017-12-16T06:20:11.767Z,3.70
2017-12-16T06:22:39.344Z,3.30
2017-12-16T06:25:08.824Z,1.70
2017-12-16T06:27:36.593Z,2.60
2017-12-16T06:30:04.487Z,4.03
2017-12-16T06:32:32.091Z,5.27
2017-12-16T06:34:59.687Z,4.50
2017-12-16T06:37:28.041Z,4.30
2017-12-16T06:39:55.633Z,3.13
2017-12-16T06:42:23.198Z,3.07
2017-12-16T06:44:51.553Z,3.17
2017-12-16T06:47:19.417Z,5.13
2017-12-16T06:49:47.047Z,4.10
2017-12-16T06:52:14.639Z,2.40
2017-12-16T06:54:42.225Z,5.67
2017-12-16T06:57:10.686Z,3.70
2017-12-16T06:59:38.277Z,4.60
2017-12-16T07:02:05.850Z,5.47
2017-12-16T07:04:33.429Z,3.67
2017-12-16T07:07:00.994Z,4.17
2017-12-16T07:09:28.591Z,10.00
2017-12-16T07:11:56.159Z,4.23
2017-12-16T07:14:24.514Z,3.90
2017-12-16T07:16:52.086Z,4.13
2017-12-16T07:19:20.426Z,3.43
2017-12-16T07:21:48.018Z,3.90
2017-12-16T07:24:16.350Z,4.17
2017-12-16T07:26:43.929Z,3.40
2017-12-16T07:29:11.499Z,7.20
2017-12-16T07:31:39.096Z,3.43
2017-12-16T07:34:06.675Z,4.57
2017-12-16T07:36:34.271Z,5.10
2017-12-16T07:39:01.866Z,4.90
2017-12-16T07:41:29.473Z,4.00
2017-12-16T07:43:57.044Z,5.20
2017-12-16T07:46:25.417Z,5.33
2017-12-16T07:48:52.986Z,7.93
2017-12-16T07:51:20.598Z,7.73
2017-12-16T07:53:48.170Z,5.30
2017-12-16T07:56:15.768Z,10.13
2017-12-16T07:58:43.338Z,12.53
2017-12-16T08:01:11.708Z,14.03
2017-12-16T08:03:39.274Z,11.67
2017-12-16T08:06:06.873Z,12.73
2017-12-16T08:08:34.442Z,10.50
2017-12-16T08:11:02.038Z,13.23
2017-12-16T08:13:29.613Z,11.37
2017-12-16T08:15:57.961Z,12.67
2017-12-16T08:18:25.579Z,17.40
2017-12-16T08:20:53.181Z,18.27
2017-12-16T08:23:20.764Z,16.10
2017-12-16T08:25:48.363Z,25.63
2017-12-16T08:28:15.939Z,19.10
2017-12-16T08:30:43.539Z,25.77
2017-12-16T08:33:11.120Z,24.30
2017-12-16T08:35:39.486Z,32.03
2017-12-16T08:38:07.836Z,21.17
2017-12-16T08:40:35.416Z,25.17
2017-12-16T08:43:03.026Z,20.00
2017-12-16T08:45:30.591Z,23.07
2017-12-16T08:47:58.191Z,24.13
2017-12-16T08:50:25.767Z,33.00
2017-12-16T08:52:54.134Z,22.83
2017-12-16T08:55:22.482Z,27.20
2017-12-16T08:57:50.116Z,31.40
2017-12-16T09:00:17.694Z,29.33
2017-12-16T09:02:45.294Z,27.13
2017-12-16T09:05:12.863Z,26.17
2017-12-16T09:07:41.234Z,29.70
2017-12-16T09:10:09.569Z,31.53
2017-12-16T09:12:37.173Z,32.03
2017-12-16T09:15:05.519Z,31.53
2017-12-16T09:17:33.126Z,32.63
2017-12-16T09:20:00.703Z,35.90
2017-12-16T09:22:28.302Z,27.20
2017-12-16T09:24:55.873Z,29.20
2017-12-16T09:27:24.247Z,33.60
2017-12-16T09:29:51.833Z,34.10
2017-12-16T09:32:19.439Z,27.27
2017-12-16T09:34:47.017Z,25.07
2017-12-16T09:37:14.626Z,30.00
2017-12-16T09:39:42.204Z,36.23
2017-12-16T09:42:09.811Z,33.47
2017-12-16T09:44:38.150Z,28.60
2017-12-16T09:47:05.722Z,31.10
2017-12-16T09:49:33.328Z,33.87
2017-12-16T09:52:00.904Z,30.33
2017-12-16T09:54:28.516Z,40.60
2017-12-16T09:56:56.146Z,32.93
2017-12-16T09:59:23.730Z,40.70
2017-12-16T10:01:51.299Z,25.97
2017-12-16T10:04:18.909Z,36.40
2017-12-16T10:06:46.478Z,22.70
2017-12-16T10:09:14.079Z,25.73
2017-12-16T10:11:41.651Z,30.10
2017-12-16T10:14:10.016Z,24.30
2017-12-16T10:16:38.358Z,23.60
2017-12-16T10:19:05.953Z,22.50
2017-12-16T10:21:33.529Z,34.87
2017-12-16T10:24:01.131Z,31.53
2017-12-16T10:26:28.697Z,32.70
2017-12-16T10:28:56.295Z,40.73
2017-12-16T10:31:24.634Z,27.90
2017-12-16T10:33:52.230Z,30.97
2017-12-16T10:36:19.814Z,23.73
2017-12-16T10:38:47.415Z,30.53
2017-12-16T10:41:14.991Z,29.03
2017-12-16T10:43:42.604Z,21.47
2017-12-16T10:46:10.183Z,26.07
2017-12-16T10:48:37.781Z,24.67
2017-12-16T10:51:05.354Z,27.07
2017-12-16T10:53:33.189Z,21.40
2017-12-16T10:56:00.753Z,25.60
2017-12-16T10:58:28.346Z,38.57
2017-12-16T11:00:55.917Z,21.73
2017-12-16T11:03:23.495Z,18.73
2017-12-16T11:05:51.103Z,23.47
2017-12-16T11:08:18.679Z,18.17
2017-12-16T11:10:47.046Z,17.13
2017-12-16T11:13:15.387Z,15.17
2017-12-16T11:15:43.103Z,24.63
2017-12-16T11:18:10.691Z,25.43
2017-12-16T11:20:38.290Z,16.40
2017-12-16T11:23:05.867Z,16.53
2017-12-16T11:25:34.238Z,17.80
2017-12-16T11:28:02.582Z,16.53
2017-12-16T11:30:30.186Z,16.43
2017-12-16T11:32:57.760Z,19.50
2017-12-16T11:35:25.349Z,18.63
2017-12-16T11:37:52.922Z,17.67
2017-12-16T11:40:20.530Z,17.20
2017-12-16T11:42:48.105Z,19.83
2017-12-16T11:45:15.713Z,14.97
2017-12-16T11:47:43.291Z,18.10
2017-12-16T11:50:10.899Z,22.90
2017-12-16T11:52:39.983Z,22.67
2017-12-16T11:55:07.582Z,14.37
2017-12-16T11:57:35.168Z,19.77
2017-12-16T12:00:03.535Z,15.40
2017-12-16T12:02:31.115Z,15.70
2017-12-16T12:04:59.474Z,15.40
2017-12-16T12:07:27.823Z,17.07
2017-12-16T12:09:55.427Z,13.50
2017-12-16T12:12:23.761Z,15.80
2017-12-16T12:14:51.333Z,16.10
2017-12-16T12:17:18.935Z,18.57
2017-12-16T12:19:46.985Z,25.53
2017-12-16T12:22:14.586Z,14.07
2017-12-16T12:24:42.159Z,17.27
2017-12-16T12:27:09.755Z,18.27
2017-12-16T12:29:38.098Z,17.30
2017-12-16T12:32:05.703Z,20.00
2017-12-16T12:34:34.048Z,22.13
2017-12-16T12:37:01.650Z,15.83
2017-12-16T12:39:29.232Z,21.33
2017-12-16T12:41:57.209Z,17.00
2017-12-16T12:44:24.831Z,15.10
2017-12-16T12:46:53.579Z,22.43
2017-12-16T12:49:21.469Z,16.40
2017-12-16T12:51:49.102Z,25.40
2017-12-16T12:54:16.678Z,21.07
2017-12-16T12:56:44.273Z,20.37
2017-12-16T12:59:11.845Z,20.73
2017-12-16T13:01:39.834Z,18.73
2017-12-16T13:04:07.717Z,19.87
2017-12-16T13:06:35.454Z,15.70
2017-12-16T13:09:03.035Z,20.00
2017-12-16T13:11:30.650Z,17.47
2017-12-16T13:13:58.703Z,18.77
2017-12-16T13:16:26.331Z,26.50
2017-12-16T13:18:54.426Z,25.37
2017-12-16T13:21:22.618Z,20.60
2017-12-16T13:23:50.914Z,20.03
2017-12-16T13:26:20.143Z,19.63
2017-12-16T13:28:48.339Z,17.97
2017-12-16T13:31:15.914Z,25.07
2017-12-16T13:33:43.518Z,23.53
2017-12-16T13:36:11.100Z,28.97
2017-12-16T13:38:38.702Z,28.60
2017-12-16T13:41:07.049Z,27.80
2017-12-16T13:43:34.647Z,25.63
2017-12-16T13:46:02.268Z,23.37
2017-12-16T13:48:29.878Z,24.03
2017-12-16T13:50:57.459Z,28.63
2017-12-16T13:53:25.073Z,22.87
2017-12-16T13:55:52.650Z,27.97
2017-12-16T13:58:20.241Z,18.80
2017-12-16T14:00:47.860Z,33.30
2017-12-16T14:03:15.459Z,27.20
2017-12-16T14:05:43.041Z,22.03
2017-12-16T14:08:10.661Z,24.07
2017-12-16T14:10:38.244Z,21.20
2017-12-16T14:13:05.822Z,25.07
2017-12-16T14:15:33.418Z,28.60
2017-12-16T14:18:06.825Z,29.60
2017-12-16T14:20:34.422Z,28.63
2017-12-16T14:23:02.097Z,26.07
2017-12-16T14:25:31.367Z,30.30
2017-12-16T14:27:58.946Z,28.60
2017-12-16T14:30:26.546Z,33.00
2017-12-16T14:32:54.919Z,30.43
2017-12-16T14:35:22.518Z,28.53
2017-12-16T14:37:50.090Z,28.07
2017-12-16T14:40:17.694Z,28.90
2017-12-16T14:42:46.053Z,28.47
2017-12-16T14:45:13.651Z,40.53
2017-12-16T14:47:41.238Z,28.57
2017-12-16T14:50:08.855Z,29.60
2017-12-16T14:52:36.433Z,28.43
2017-12-16T14:55:04.007Z,26.20
2017-12-16T14:57:31.602Z,26.07
2017-12-16T14:59:59.176Z,27.30
2017-12-16T15:02:26.820Z,25.40
2017-12-16T15:04:54.398Z,26.07
2017-12-16T15:07:22.766Z,29.20
2017-12-16T15:09:50.344Z,37.10
2017-12-16T15:12:18.711Z,31.10
2017-12-16T15:14:46.289Z,32.90
2017-12-16T15:17:14.654Z,30.27
2017-12-16T15:19:42.235Z,33.93
2017-12-16T15:22:09.885Z,30.67
2017-12-16T15:24:37.463Z,35.77
2017-12-16T15:27:05.100Z,30.77
2017-12-16T15:29:33.449Z,30.13
2017-12-16T15:32:01.052Z,56.20
2017-12-16T15:34:28.634Z,37.60
2017-12-16T15:36:56.229Z,36.93
2017-12-16T15:39:23.804Z,33.60
2017-12-16T15:41:52.166Z,40.30
2017-12-16T15:44:19.788Z,33.90
2017-12-16T15:46:47.567Z,34.10
2017-12-16T15:49:15.191Z,31.60
2017-12-16T15:51:42.785Z,33.90
2017-12-16T15:54:10.358Z,33.30
2017-12-16T15:56:37.992Z,30.23
2017-12-16T15:59:05.562Z,32.10
2017-12-16T16:01:33.163Z,29.33
2017-12-16T16:04:00.738Z,25.27
2017-12-16T16:06:29.070Z,37.73
2017-12-16T16:08:56.664Z,33.07
2017-12-16T16:11:24.245Z,31.10
2017-12-16T16:13:51.846Z,28.83
2017-12-16T16:16:19.430Z,31.90
2017-12-16T16:18:47.026Z,36.27
2017-12-16T16:21:14.669Z,35.33
2017-12-16T16:23:42.260Z,32.93
2017-12-16T16:26:09.876Z,42.80
2017-12-16T16:28:37.479Z,27.83
2017-12-16T16:31:05.101Z,32.30
2017-12-16T16:33:32.744Z,42.63
2017-12-16T16:36:00.317Z,31.27
2017-12-16T16:38:28.674Z,33.83
2017-12-16T16:40:56.255Z,30.03
2017-12-16T16:43:24.622Z,33.00
2017-12-16T16:45:52.240Z,33.40
2017-12-16T16:48:19.834Z,33.40
2017-12-16T16:50:47.406Z,35.37
2017-12-16T16:53:15.044Z,32.73
2017-12-16T16:55:42.656Z,47.00
2017-12-16T16:58:10.252Z,35.03
2017-12-16T17:00:37.830Z,43.70
2017-12-16T17:03:05.433Z,36.73
2017-12-16T17:05:33.011Z,44.60
2017-12-16T17:08:00.648Z,34.90
2017-12-16T17:10:28.286Z,32.40
2017-12-16T17:12:55.895Z,40.37
2017-12-16T17:15:23.509Z,32.10
2017-12-16T17:17:51.119Z,40.03
2017-12-16T17:20:18.756Z,37.40
2017-12-16T17:22:46.380Z,35.70
2017-12-16T17:25:13.978Z,33.77
2017-12-16T17:27:41.923Z,27.50
2017-12-16T17:30:10.339Z,29.17
2017-12-16T17:32:37.966Z,35.90
2017-12-16T17:35:05.562Z,39.03
2017-12-16T17:37:33.133Z,43.63
2017-12-16T17:40:00.779Z,34.70
2017-12-16T17:42:28.411Z,32.40
2017-12-16T17:44:56.821Z,31.60
2017-12-16T17:47:24.431Z,36.43
2017-12-16T17:49:52.034Z,34.57
2017-12-16T17:52:20.839Z,32.30
2017-12-16T17:54:49.207Z,33.83
2017-12-16T17:57:17.494Z,35.47
2017-12-16T17:59:45.739Z,36.17
2017-12-16T18:02:13.989Z,31.30
2017-12-16T18:04:41.668Z,39.10
2017-12-16T18:07:09.237Z,44.13
2017-12-16T18:09:36.829Z,38.30
2017-12-16T18:12:04.454Z,36.17
2017-12-16T18:14:32.098Z,34.97
2017-12-16T18:17:00.442Z,38.80
2017-12-16T18:19:28.094Z,33.07
2017-12-16T18:21:55.722Z,33.90
2017-12-16T18:24:23.317Z,36.97
2017-12-16T18:26:50.935Z,42.53
2017-12-16T18:29:18.577Z,29.83
2017-12-16T18:31:46.150Z,35.10
2017-12-16T18:34:13.828Z,31.70
2017-12-16T18:36:41.403Z,33.63
2017-12-16T18:39:09.026Z,37.60
2017-12-16T18:41:36.677Z,34.63
2017-12-16T18:44:05.072Z,37.57
2017-12-16T18:46:32.723Z,33.30
2017-12-16T18:49:00.346Z,33.20
2017-12-16T18:51:28.005Z,42.27
2017-12-16T18:53:55.636Z,33.70
2017-12-16T18:56:23.658Z,38.20
2017-12-16T18:58:51.298Z,39.20
2017-12-16T19:01:18.898Z,33.13
2017-12-16T19:03:46.475Z,35.57
2017-12-16T19:06:14.125Z,39.30
2017-12-16T19:08:41.754Z,35.07
2017-12-16T19:11:10.174Z,35.50
2017-12-16T19:13:37.797Z,29.53
2017-12-16T19:16:05.442Z,32.23
2017-12-16T19:18:33.056Z,29.90
2017-12-16T19:21:01.469Z,39.90
2017-12-16T19:23:29.037Z,31.83
2017-12-16T19:25:56.685Z,34.33
2017-12-16T19:28:24.313Z,28.63
2017-12-16T19:30:51.912Z,30.50
2017-12-16T19:33:19.533Z,27.70
2017-12-16T19:35:47.185Z,27.33
2017-12-16T19:38:14.811Z,29.07
2017-12-16T19:40:43.225Z,23.27
2017-12-16T19:43:10.850Z,32.77
2017-12-16T19:45:39.270Z,27.53
2017-12-16T19:48:06.899Z,31.03
2017-12-16T19:50:35.331Z,27.43
2017-12-16T19:53:03.051Z,25.37
2017-12-16T19:55:30.676Z,26.27
2017-12-16T19:57:58.329Z,26.70
2017-12-16T20:00:25.983Z,32.37
2017-12-16T20:02:53.810Z,26.90
2017-12-16T20:05:21.443Z,26.57
2017-12-16T20:07:49.101Z,19.20
2017-12-16T20:10:16.726Z,29.17
2017-12-16T20:12:44.377Z,26.43
2017-12-16T20:15:12.242Z,25.03
2017-12-16T20:17:39.899Z,24.90
2017-12-16T20:20:07.475Z,25.23
2017-12-16T20:22:35.122Z,24.80
2017-12-16T20:25:02.792Z,32.50
2017-12-16T20:27:30.439Z,22.80
2017-12-16T20:29:58.087Z,27.10
2017-12-16T20:32:25.695Z,20.63
2017-12-16T20:34:53.326Z,28.63
2017-12-16T20:37:20.969Z,22.80
2017-12-16T20:39:48.592Z,22.70
2017-12-16T20:42:16.238Z,23.10
2017-12-16T20:44:43.851Z,23.07
2017-12-16T20:47:12.273Z,26.00
2017-12-16T20:49:39.902Z,20.77
2017-12-16T20:52:07.562Z,30.43
2017-12-16T20:54:35.185Z,20.80
2017-12-16T20:57:02.908Z,23.97
2017-12-16T20:59:30.543Z,22.57
2017-12-16T21:01:58.194Z,35.60
2017-12-16T21:04:25.824Z,23.70
2017-12-16T21:06:54.250Z,22.73
2017-12-16T21:09:21.933Z,20.20
2017-12-16T21:11:49.575Z,21.80
2017-12-16T21:14:18.204Z,20.43
2017-12-16T21:16:46.096Z,19.83
2017-12-16T21:19:13.803Z,18.73
2017-12-16T21:21:41.426Z,22.53
2017-12-16T21:24:09.078Z,26.20
2017-12-16T21:26:36.925Z,25.70
2017-12-16T21:29:05.369Z,22.87
2017-12-16T21:31:33.000Z,20.10
2017-12-16T21:34:01.396Z,18.70
2017-12-16T21:36:29.026Z,19.30
2017-12-16T21:38:56.774Z,16.30
2017-12-16T21:41:24.482Z,15.97
2017-12-16T21:43:52.072Z,14.50
2017-12-16T21:46:19.950Z,15.60
2017-12-16T21:48:47.657Z,17.57
2017-12-16T21:51:15.277Z,18.73
2017-12-16T21:53:42.925Z,44.67
2017-12-16T21:56:10.555Z,17.50
2017-12-16T21:58:38.208Z,16.40
2017-12-16T22:01:05.832Z,17.20
2017-12-16T22:03:33.463Z,15.30
2017-12-16T22:06:01.090Z,11.47
2017-12-16T22:08:28.742Z,13.47
2017-12-16T22:10:58.325Z,14.40
2017-12-16T22:13:25.996Z,18.40
2017-12-16T22:15:53.609Z,13.77
2017-12-16T22:18:21.260Z,19.83
2017-12-16T22:20:48.888Z,32.50
2017-12-16T22:23:16.552Z,23.23
2017-12-16T22:25:44.179Z,24.43
2017-12-16T22:28:11.805Z,15.97
2017-12-16T22:30:39.457Z,18.50
2017-12-16T22:33:07.085Z,28.20
2017-12-16T22:35:34.736Z,16.23
2017-12-16T22:38:02.376Z,15.17
2017-12-16T22:40:30.026Z,18.27
2017-12-16T22:42:58.409Z,20.10
2017-12-16T22:45:26.817Z,21.00
2017-12-16T22:47:54.442Z,16.13
2017-12-16T22:50:22.086Z,15.70
2017-12-16T22:52:49.718Z,13.33
2017-12-16T22:55:17.361Z,15.77
2017-12-16T22:57:45.002Z,11.40
2017-12-16T23:00:12.671Z,20.37
2017-12-16T23:02:40.298Z,17.10
2017-12-16T23:05:07.932Z,14.60
2017-12-16T23:07:35.557Z,15.10
2017-12-16T23:10:03.210Z,22.80
2017-12-16T23:12:30.790Z,16.60
2017-12-16T23:14:58.448Z,20.17
2017-12-16T23:17:26.074Z,16.63
2017-12-16T23:19:53.725Z,14.43
2017-12-16T23:22:21.343Z,15.10
2017-12-16T23:24:48.985Z,17.47
2017-12-16T23:27:16.606Z,17.00
2017-12-16T23:29:45.013Z,10.70
2017-12-16T23:32:12.649Z,15.60
2017-12-16T23:34:41.058Z,14.20
2017-12-16T23:37:08.637Z,16.50
2017-12-16T23:39:36.252Z,12.90
2017-12-16T23:42:03.980Z,16.20
2017-12-16T23:44:31.607Z,13.60
2017-12-16T23:46:59.252Z,15.87
2017-12-16T23:49:26.865Z,17.60
2017-12-16T23:51:54.456Z,13.40
2017-12-16T23:56:56.678Z,14.00
2017-12-16T23:59:24.298Z,10.93
